Terminal Aerodrome Forecast
Issued by NWS

Home | Current Version | Previous Version | Text Only | Print | Product List | Glossary On
Versions: 1 2 3 4 5 6 7 8 9 10 11 12 13 14 15 16 17 18 19
759
FTUS44 KCRP 210843 AAA
TAFALI
TAF AMD
KALI 210843Z 2109/2206 VRB03KT 1/4SM FG VV003
     FM211500 16007KT P6SM SCT015 BKN025
     FM211700 16010KT P6SM BKN035=

USA.gov is the U.S. government's official web portal to all federal, state and local government web resources and services.